createdAt,value
2022-12-15T00:01:19.906Z,27.90
2022-12-15T00:04:26.617Z,25.57
2022-12-15T00:07:32.404Z,27.60
2022-12-15T00:10:39.005Z,29.37
2022-12-15T00:13:45.468Z,26.80
2022-12-15T00:16:51.297Z,22.93
2022-12-15T00:19:57.809Z,23.10
2022-12-15T00:23:03.791Z,25.63
2022-12-15T00:26:10.351Z,28.57
2022-12-15T00:29:16.888Z,30.93
2022-12-15T00:32:23.508Z,29.73
2022-12-15T00:35:29.510Z,31.60
2022-12-15T00:38:36.106Z,32.80
2022-12-15T00:41:24.070Z,28.93
2022-12-15T00:44:15.828Z,30.97
2022-12-15T00:47:06.465Z,32.00
2022-12-15T00:50:13.129Z,31.70
2022-12-15T00:53:19.192Z,36.33
2022-12-15T00:56:25.821Z,33.00
2022-12-15T00:59:32.706Z,34.83
2022-12-15T01:02:38.976Z,36.43
2022-12-15T01:05:45.796Z,33.53
2022-12-15T01:08:51.726Z,32.87
2022-12-15T01:11:58.676Z,31.63
2022-12-15T01:15:04.712Z,29.47
2022-12-15T01:18:11.104Z,30.73
2022-12-15T01:21:03.720Z,34.83
2022-12-15T01:23:50.945Z,38.90
2022-12-15T01:26:39.321Z,35.00
2022-12-15T01:29:27.235Z,31.53
2022-12-15T01:32:14.699Z,30.67
2022-12-15T01:35:02.636Z,32.93
2022-12-15T01:37:50.330Z,31.70
2022-12-15T01:40:46.956Z,28.40
2022-12-15T01:43:36.229Z,33.40
2022-12-15T01:46:25.346Z,29.77
2022-12-15T01:49:16.419Z,32.27
2022-12-15T01:52:07.098Z,31.13
2022-12-15T01:54:56.630Z,30.47
2022-12-15T01:57:44.735Z,29.70
2022-12-15T02:00:32.768Z,33.53
2022-12-15T02:03:20.351Z,30.67
2022-12-15T02:06:09.721Z,33.00
2022-12-15T02:08:59.473Z,31.80
2022-12-15T02:11:58.601Z,32.60
2022-12-15T02:15:15.124Z,31.30
2022-12-15T02:18:24.186Z,31.13
2022-12-15T02:21:17.666Z,29.70
2022-12-15T02:24:24.125Z,31.83
2022-12-15T02:27:14.102Z,25.57
2022-12-15T02:30:14.696Z,27.33
2022-12-15T02:33:05.514Z,26.40
2022-12-15T02:36:01.387Z,25.53
2022-12-15T02:38:49.252Z,25.57
2022-12-15T02:41:43.909Z,25.80
2022-12-15T02:44:40.675Z,25.70
2022-12-15T02:47:30.884Z,23.80
2022-12-15T02:50:41.662Z,28.10
2022-12-15T02:53:35.730Z,30.00
2022-12-15T02:56:28.032Z,29.07
2022-12-15T02:59:21.878Z,27.80
2022-12-15T03:02:10.252Z,22.87
2022-12-15T03:04:58.806Z,28.20
2022-12-15T03:07:49.590Z,25.67
2022-12-15T03:10:37.681Z,31.50
2022-12-15T03:13:25.335Z,29.47
2022-12-15T03:16:13.566Z,28.80
2022-12-15T03:19:01.372Z,24.67
2022-12-15T03:21:49.109Z,28.83
2022-12-15T03:24:36.493Z,30.27
2022-12-15T03:27:24.437Z,28.63
2022-12-15T03:30:12.248Z,31.03
2022-12-15T03:33:00.106Z,30.93
2022-12-15T03:35:48.072Z,30.93
2022-12-15T03:38:35.736Z,28.57
2022-12-15T03:41:23.606Z,32.57
2022-12-15T03:44:11.483Z,33.53
2022-12-15T03:47:03.296Z,33.43
2022-12-15T03:49:51.655Z,32.27
2022-12-15T03:52:39.111Z,32.57
2022-12-15T03:55:27.175Z,34.40
2022-12-15T03:58:15.041Z,30.47
2022-12-15T04:01:14.368Z,30.80
2022-12-15T04:04:02.482Z,30.47
2022-12-15T04:06:50.285Z,33.80
2022-12-15T04:09:37.624Z,34.43
2022-12-15T04:12:25.486Z,33.33
2022-12-15T04:15:12.986Z,33.80
2022-12-15T04:18:02.334Z,32.00
2022-12-15T04:20:50.193Z,37.83
2022-12-15T04:23:37.695Z,36.10
2022-12-15T04:26:44.082Z,34.47
2022-12-15T04:29:50.644Z,34.10
2022-12-15T04:32:57.149Z,33.47
2022-12-15T04:36:03.333Z,32.10
2022-12-15T04:39:10.284Z,42.20
2022-12-15T04:42:18.986Z,38.33
2022-12-15T04:45:25.662Z,32.30
2022-12-15T04:48:32.930Z,34.03
2022-12-15T04:51:39.005Z,35.10
2022-12-15T04:54:45.525Z,38.10
2022-12-15T04:57:51.457Z,32.17
2022-12-15T05:00:57.959Z,36.07
2022-12-15T05:04:03.903Z,39.37
2022-12-15T05:07:10.453Z,36.57
2022-12-15T05:10:16.533Z,38.13
2022-12-15T05:13:26.101Z,35.00
2022-12-15T05:16:32.093Z,36.23
2022-12-15T05:19:38.141Z,35.10
2022-12-15T05:22:44.076Z,37.27
2022-12-15T05:25:50.102Z,33.93
2022-12-15T05:28:56.674Z,39.57
2022-12-15T05:31:49.001Z,35.40
2022-12-15T05:34:38.496Z,32.87
2022-12-15T05:37:26.378Z,36.43
2022-12-15T05:40:14.103Z,37.70
2022-12-15T05:43:01.503Z,30.63
2022-12-15T05:45:49.174Z,41.13
2022-12-15T05:48:36.669Z,39.37
2022-12-15T05:51:24.362Z,38.10
2022-12-15T05:54:12.680Z,31.63
2022-12-15T05:57:00.790Z,32.57
2022-12-15T05:59:47.972Z,37.10
2022-12-15T06:02:35.696Z,37.80
2022-12-15T06:05:23.112Z,35.67
2022-12-15T06:08:11.000Z,37.30
2022-12-15T06:10:58.730Z,34.60
2022-12-15T06:13:46.830Z,35.73
2022-12-15T06:16:39.595Z,36.83
2022-12-15T06:19:30.734Z,38.53
2022-12-15T06:22:18.685Z,42.90
2022-12-15T06:25:06.719Z,34.53
2022-12-15T06:27:59.919Z,35.37
2022-12-15T06:30:48.960Z,32.93
2022-12-15T06:33:36.724Z,33.80
2022-12-15T06:36:24.606Z,31.87
2022-12-15T06:39:13.952Z,33.23
2022-12-15T06:42:01.414Z,34.93
2022-12-15T06:44:49.976Z,28.00
2022-12-15T06:47:37.989Z,33.83
2022-12-15T06:50:25.209Z,30.93
2022-12-15T06:53:13.360Z,37.97
2022-12-15T06:56:02.344Z,34.73
2022-12-15T06:58:50.157Z,37.47
2022-12-15T07:01:38.614Z,30.50
2022-12-15T07:04:27.166Z,36.83
2022-12-15T07:07:14.561Z,34.10
2022-12-15T07:10:02.498Z,30.17
2022-12-15T07:12:50.453Z,36.70
2022-12-15T07:15:38.323Z,37.37
2022-12-15T07:18:26.164Z,33.00
2022-12-15T07:21:13.596Z,34.83
2022-12-15T07:24:02.399Z,32.87
2022-12-15T07:26:50.502Z,33.70
2022-12-15T07:29:38.424Z,37.90
2022-12-15T07:32:25.841Z,32.77
2022-12-15T07:35:13.974Z,29.00
2022-12-15T07:38:01.459Z,35.00
2022-12-15T07:40:49.684Z,33.10
2022-12-15T07:43:37.898Z,34.10
2022-12-15T07:46:27.799Z,31.57
2022-12-15T07:49:17.214Z,34.47
2022-12-15T07:52:04.671Z,42.37
2022-12-15T07:54:52.211Z,37.23
2022-12-15T07:57:39.624Z,51.73
2022-12-15T08:00:28.640Z,36.63
2022-12-15T08:03:16.350Z,39.87
2022-12-15T08:06:07.183Z,36.63
2022-12-15T08:08:54.623Z,37.10
2022-12-15T08:11:43.679Z,38.77
2022-12-15T08:14:32.875Z,38.40
2022-12-15T08:17:20.449Z,32.97
2022-12-15T08:20:10.197Z,39.60
2022-12-15T08:22:57.887Z,35.20
2022-12-15T08:25:45.513Z,37.63
2022-12-15T08:28:34.084Z,38.10
2022-12-15T08:31:22.388Z,36.30
2022-12-15T08:34:11.330Z,36.67
2022-12-15T08:36:58.799Z,35.70
2022-12-15T08:39:46.326Z,37.50
2022-12-15T08:42:34.385Z,34.63
2022-12-15T08:45:21.868Z,35.67
2022-12-15T08:48:10.040Z,39.20
2022-12-15T08:50:58.025Z,41.47
2022-12-15T08:53:46.993Z,34.80
2022-12-15T08:56:35.949Z,37.13
2022-12-15T08:59:23.291Z,40.77
2022-12-15T09:02:12.617Z,36.77
2022-12-15T09:05:00.541Z,40.80
2022-12-15T09:07:48.339Z,40.20
2022-12-15T09:10:40.727Z,39.07
2022-12-15T09:13:29.469Z,36.30
2022-12-15T09:16:18.191Z,35.50
2022-12-15T09:19:06.305Z,35.20
2022-12-15T09:21:54.400Z,42.07
2022-12-15T09:24:41.809Z,35.50
2022-12-15T09:27:31.224Z,38.47
2022-12-15T09:30:19.208Z,38.97
2022-12-15T09:33:07.202Z,39.43
2022-12-15T09:35:55.272Z,34.90
2022-12-15T09:38:43.450Z,37.00
2022-12-15T09:41:32.447Z,33.83
2022-12-15T09:44:21.973Z,35.40
2022-12-15T09:47:23.323Z,35.77
2022-12-15T09:50:12.247Z,39.13
2022-12-15T09:53:00.520Z,35.47
2022-12-15T09:55:51.450Z,38.77
2022-12-15T09:58:45.130Z,40.50
2022-12-15T10:01:38.211Z,38.20
2022-12-15T10:04:38.237Z,37.77
2022-12-15T10:07:25.634Z,36.57
2022-12-15T10:10:18.668Z,38.20
2022-12-15T10:13:11.043Z,35.83
2022-12-15T10:16:00.604Z,34.80
2022-12-15T10:18:57.580Z,37.67
2022-12-15T10:21:50.549Z,35.37
2022-12-15T10:25:08.568Z,34.23
2022-12-15T10:27:49.200Z,37.07
2022-12-15T10:30:40.594Z,32.27
2022-12-15T10:33:29.913Z,33.73
2022-12-15T10:36:17.803Z,38.50
2022-12-15T10:39:05.928Z,32.87
2022-12-15T10:42:13.292Z,32.63
2022-12-15T10:45:00.707Z,42.03
2022-12-15T10:47:59.037Z,37.40
2022-12-15T10:50:47.165Z,37.90
2022-12-15T10:53:42.330Z,36.37
2022-12-15T10:56:33.544Z,39.73
2022-12-15T10:59:33.377Z,36.47
2022-12-15T11:02:23.912Z,37.80
2022-12-15T11:05:16.329Z,35.87
2022-12-15T11:08:17.116Z,39.47
2022-12-15T11:11:25.994Z,39.70
2022-12-15T11:14:15.842Z,39.20
2022-12-15T11:17:07.971Z,39.70
2022-12-15T11:20:05.892Z,40.97
2022-12-15T11:22:56.853Z,37.37
2022-12-15T11:25:47.300Z,41.37
2022-12-15T11:28:40.112Z,39.33
2022-12-15T11:31:40.872Z,47.27
2022-12-15T11:34:35.759Z,36.83
2022-12-15T11:40:43.131Z,46.57
2022-12-15T11:44:04.349Z,39.80
2022-12-15T11:47:17.414Z,39.67
2022-12-15T11:50:17.458Z,45.50
2022-12-15T11:53:19.611Z,38.70
2022-12-15T11:56:31.873Z,40.60
2022-12-15T11:59:19.258Z,41.43
2022-12-15T12:02:09.550Z,43.53
2022-12-15T12:05:06.293Z,51.40
2022-12-15T12:07:59.469Z,52.77
2022-12-15T12:10:57.640Z,44.80
2022-12-15T12:13:51.892Z,47.23
2022-12-15T12:16:42.110Z,46.73
2022-12-15T12:19:36.522Z,51.07
2022-12-15T12:22:29.271Z,46.17
2022-12-15T12:25:19.463Z,43.57
2022-12-15T12:28:23.996Z,51.53
2022-12-15T12:31:22.316Z,47.77
2022-12-15T12:34:14.072Z,45.73
2022-12-15T12:37:20.480Z,51.23
2022-12-15T12:40:43.290Z,43.43
2022-12-15T12:43:35.168Z,46.07
2022-12-15T12:46:30.853Z,49.93
2022-12-15T12:49:56.984Z,40.50
2022-12-15T12:53:04.555Z,45.63
2022-12-15T12:55:51.990Z,49.00
2022-12-15T12:58:48.423Z,51.10
2022-12-15T13:01:38.323Z,46.93
2022-12-15T13:04:29.314Z,51.87
2022-12-15T13:07:34.631Z,40.80
2022-12-15T13:10:23.804Z,39.03
2022-12-15T13:13:23.759Z,47.77
2022-12-15T13:16:14.520Z,46.77
2022-12-15T13:19:10.798Z,43.80
2022-12-15T13:21:58.536Z,48.83
2022-12-15T13:24:50.561Z,48.13
2022-12-15T13:27:40.682Z,48.10
2022-12-15T13:30:28.747Z,46.03
2022-12-15T13:33:20.045Z,46.50
2022-12-15T13:36:07.970Z,47.07
2022-12-15T13:38:56.532Z,47.27
2022-12-15T13:42:07.539Z,45.60
2022-12-15T13:44:53.850Z,44.97
2022-12-15T13:47:42.453Z,45.37
2022-12-15T13:50:37.304Z,46.23
2022-12-15T13:53:26.821Z,41.20
2022-12-15T13:56:26.358Z,47.00
2022-12-15T13:59:32.097Z,46.50
2022-12-15T14:02:29.241Z,49.93
2022-12-15T14:05:22.626Z,45.90
2022-12-15T14:08:13.906Z,43.97
2022-12-15T14:11:16.495Z,46.03
2022-12-15T14:14:17.506Z,41.60
2022-12-15T14:17:08.750Z,44.17
2022-12-15T14:19:56.408Z,40.63
2022-12-15T14:22:44.327Z,50.90
2022-12-15T14:25:31.687Z,46.17
2022-12-15T14:28:26.325Z,44.93
2022-12-15T14:31:18.789Z,47.80
2022-12-15T14:34:09.446Z,47.07
2022-12-15T14:36:58.657Z,43.47
2022-12-15T14:39:50.224Z,45.30
2022-12-15T14:42:38.774Z,46.37
2022-12-15T14:45:27.788Z,46.40
2022-12-15T14:51:30.441Z,41.20
2022-12-15T14:54:33.224Z,42.03
2022-12-15T14:57:26.275Z,48.93
2022-12-15T15:00:31.533Z,41.33
2022-12-15T15:03:06.969Z,42.43
2022-12-15T15:03:24.610Z,39.23
2022-12-15T15:06:12.527Z,43.17
2022-12-15T15:09:04.842Z,46.23
2022-12-15T15:11:55.309Z,43.30
2022-12-15T15:14:47.980Z,50.03
2022-12-15T15:17:39.794Z,44.40
2022-12-15T15:20:38.250Z,47.67
2022-12-15T15:23:26.219Z,42.07
2022-12-15T15:26:16.360Z,39.60
2022-12-15T15:29:04.372Z,46.27
2022-12-15T15:31:53.949Z,46.30
2022-12-15T15:34:41.873Z,45.43
2022-12-15T15:37:29.285Z,47.10
2022-12-15T15:40:18.059Z,46.77
2022-12-15T15:43:11.442Z,47.87
2022-12-15T15:46:03.734Z,54.27
2022-12-15T15:48:52.671Z,51.10
2022-12-15T15:51:40.608Z,45.50
2022-12-15T15:54:33.702Z,48.03
2022-12-15T15:57:21.568Z,50.27
2022-12-15T16:00:17.038Z,41.47
2022-12-15T16:03:05.136Z,44.37
2022-12-15T16:05:53.128Z,48.33
2022-12-15T16:08:40.661Z,45.07
2022-12-15T16:11:30.870Z,47.37
2022-12-15T16:14:18.998Z,51.33
2022-12-15T16:17:10.129Z,48.90
2022-12-15T16:19:57.527Z,46.40
2022-12-15T16:22:46.369Z,48.87
2022-12-15T16:25:43.755Z,47.80
2022-12-15T16:28:34.483Z,45.93
2022-12-15T16:31:32.772Z,47.70
2022-12-15T16:34:24.665Z,52.03
2022-12-15T16:37:18.833Z,51.00
2022-12-15T16:40:14.629Z,48.97
2022-12-15T16:43:03.139Z,49.83
2022-12-15T16:45:51.435Z,52.63
2022-12-15T16:48:39.335Z,52.83
2022-12-15T16:51:34.846Z,49.60
2022-12-15T16:54:29.141Z,52.07
2022-12-15T16:57:16.532Z,55.47
2022-12-15T17:00:04.778Z,53.60
2022-12-15T17:02:53.189Z,46.17
2022-12-15T17:05:41.472Z,48.63
2022-12-15T17:08:34.376Z,57.83
2022-12-15T17:11:23.940Z,52.60
2022-12-15T17:14:12.007Z,55.80
2022-12-15T17:16:59.994Z,50.37
2022-12-15T17:20:19.713Z,56.40
2022-12-15T17:23:00.153Z,51.47
2022-12-15T17:26:19.983Z,54.10
2022-12-15T17:28:56.491Z,55.03
2022-12-15T17:31:44.552Z,55.30
2022-12-15T17:34:33.221Z,54.90
2022-12-15T17:37:21.110Z,51.83
2022-12-15T17:40:15.580Z,54.10
2022-12-15T17:43:03.300Z,60.03
2022-12-15T17:45:50.862Z,53.97
2022-12-15T17:48:38.781Z,50.33
2022-12-15T17:51:26.837Z,52.83
2022-12-15T17:54:18.716Z,50.93
2022-12-15T17:57:06.223Z,52.17
2022-12-15T17:59:53.863Z,52.87
2022-12-15T18:02:42.069Z,52.80
2022-12-15T18:05:31.043Z,48.97
2022-12-15T18:08:20.405Z,55.23
2022-12-15T18:11:14.482Z,53.63
2022-12-15T18:14:02.280Z,53.60
2022-12-15T18:16:49.552Z,54.20
2022-12-15T18:19:37.053Z,51.20
2022-12-15T18:22:25.044Z,54.37
2022-12-15T18:25:20.762Z,55.37
2022-12-15T18:28:22.392Z,55.70
2022-12-15T18:31:16.599Z,61.43
2022-12-15T18:34:06.540Z,57.33
2022-12-15T18:36:54.388Z,62.83
2022-12-15T18:39:41.785Z,54.07
2022-12-15T18:42:29.290Z,58.60
2022-12-15T18:45:18.394Z,53.23
2022-12-15T18:48:27.427Z,49.50
2022-12-15T18:51:19.447Z,60.90
2022-12-15T18:54:07.776Z,56.67
2022-12-15T18:56:55.698Z,59.47
2022-12-15T18:59:43.182Z,55.13
2022-12-15T19:02:30.768Z,57.13
2022-12-15T19:05:33.015Z,60.67
2022-12-15T19:08:24.903Z,54.60
2022-12-15T19:11:20.084Z,59.13
2022-12-15T19:14:37.095Z,56.40
2022-12-15T19:17:43.857Z,72.73
2022-12-15T19:20:50.649Z,63.70
2022-12-15T19:23:38.349Z,66.07
2022-12-15T19:26:25.853Z,67.60
2022-12-15T19:29:18.413Z,65.33
2022-12-15T19:32:06.060Z,64.60
2022-12-15T19:34:53.985Z,60.20
2022-12-15T19:37:43.536Z,65.50
2022-12-15T19:40:33.076Z,63.67
2022-12-15T19:43:21.102Z,60.40
2022-12-15T19:46:19.110Z,62.37
2022-12-15T19:49:06.608Z,58.83
2022-12-15T19:51:54.586Z,57.20
2022-12-15T19:54:42.308Z,65.50
2022-12-15T19:57:30.288Z,65.20
2022-12-15T20:00:21.399Z,63.53
2022-12-15T20:03:09.507Z,62.47
2022-12-15T20:05:57.967Z,53.37
2022-12-15T20:08:47.472Z,50.07
2022-12-15T20:11:34.887Z,56.00
2022-12-15T20:14:22.401Z,63.83
2022-12-15T20:17:09.966Z,63.17
2022-12-15T20:19:57.428Z,54.60
2022-12-15T20:22:46.425Z,53.57
2022-12-15T20:25:36.039Z,61.87
2022-12-15T20:28:24.873Z,51.53
2022-12-15T20:33:48.386Z,60.13
2022-12-15T20:36:36.443Z,55.70
2022-12-15T20:39:26.660Z,45.70
2022-12-15T20:42:15.045Z,55.50
2022-12-15T20:45:02.566Z,42.97
2022-12-15T20:47:50.843Z,53.40
2022-12-15T20:50:41.169Z,48.00
2022-12-15T20:53:29.051Z,51.57
2022-12-15T20:56:16.620Z,47.93
2022-12-15T20:59:04.583Z,45.80
2022-12-15T21:01:52.600Z,42.33
2022-12-15T21:04:42.305Z,41.77
2022-12-15T21:07:29.781Z,47.27
2022-12-15T21:10:18.752Z,49.60
2022-12-15T21:13:10.969Z,38.27
2022-12-15T21:15:58.389Z,36.60
2022-12-15T21:21:55.751Z,48.87
2022-12-15T21:24:43.288Z,39.10
2022-12-15T21:27:30.791Z,40.27
2022-12-15T21:30:20.642Z,42.17
2022-12-15T21:33:08.684Z,40.60
2022-12-15T21:35:56.120Z,38.50
2022-12-15T21:38:45.078Z,39.27
2022-12-15T21:41:32.516Z,36.00
2022-12-15T21:44:20.493Z,36.97
2022-12-15T21:47:23.490Z,37.27
2022-12-15T21:50:11.369Z,36.23
2022-12-15T21:52:59.464Z,34.47
2022-12-15T21:55:48.000Z,36.47
2022-12-15T21:58:35.526Z,39.00
2022-12-15T22:01:29.798Z,37.03
2022-12-15T22:04:17.393Z,32.53
2022-12-15T22:07:07.234Z,34.83
2022-12-15T22:09:54.644Z,28.50
2022-12-15T22:12:44.509Z,26.73
2022-12-15T22:15:31.747Z,27.93
2022-12-15T22:18:20.319Z,22.53
2022-12-15T22:21:07.819Z,24.17
2022-12-15T22:23:55.253Z,26.90
2022-12-15T22:26:43.443Z,25.53
2022-12-15T22:29:31.623Z,29.23
2022-12-15T22:32:19.639Z,25.43
2022-12-15T22:35:26.530Z,24.70
2022-12-15T22:38:14.554Z,28.97
2022-12-15T22:41:01.883Z,28.03
2022-12-15T22:43:51.491Z,24.87
2022-12-15T22:46:39.272Z,31.73
2022-12-15T22:49:30.691Z,30.27
2022-12-15T22:52:19.409Z,22.53
2022-12-15T22:55:07.552Z,28.57
2022-12-15T22:58:00.163Z,26.90
2022-12-15T23:00:48.284Z,25.30
2022-12-15T23:03:36.437Z,25.03
2022-12-15T23:06:24.255Z,21.70
2022-12-15T23:09:12.217Z,23.87
2022-12-15T23:12:00.172Z,23.83
2022-12-15T23:15:06.680Z,29.43
2022-12-15T23:17:53.949Z,24.00
2022-12-15T23:20:42.990Z,17.40
2022-12-15T23:23:32.757Z,21.03
2022-12-15T23:26:22.243Z,22.00
2022-12-15T23:29:10.142Z,18.23
2022-12-15T23:31:57.854Z,18.33
2022-12-15T23:34:46.358Z,18.70
2022-12-15T23:37:35.079Z,21.93
2022-12-15T23:40:23.251Z,20.87
2022-12-15T23:43:10.664Z,20.47
2022-12-15T23:46:07.065Z,18.00
2022-12-15T23:48:55.739Z,20.43
2022-12-15T23:51:43.656Z,20.83
2022-12-15T23:54:31.600Z,17.13
2022-12-15T23:57:19.541Z,23.93
